Isla Martín García, Argentina

10:04 PM ART en Octubre 31, 2014 (GMT -0300)
San Isidro, Buenos Aires | Change Station
CLOSE
Current Station
Estación meteorológica personal
Location: San Isidro, BUENOS AIRES
Altura: 0 ft
Estaciones meteorológicas cercanas

Alt 0 ft 34.47 °S, 58.49 °W | Updated 2 minutes ago

Overcast
Nublado
62.6 ° F
Sensación térmica 62.6 ° F
N
7.6
Viento Variable Viento desde SE
Gusts 12.1 mph

Hoy
Alta -- | Baja -- ° F
--% Posibilidad de precipitaciones
Ayer
Alta -- | Baja -- ° F
Precip. -- pul
5:53 AM 7:20 PM
Cuarto creciente, 60% visible
Presión 30.06 pul
Visibilidad 6.2 Millas
Nubes Nubes dispersas 2500 ft
Nublado 5000 ft
Punto de rocío 55 ° F
Humedad 76%
Precipitaciones 0.18 pul
Espesor de la nieve No disponible.
UV 0 de una escala de 12
Polen No disponible.
Calidad del aire No disponible.
Flu Activity No disponible.
METAR SADF 010000Z 14008KT 9999 SCT025 OVC050 18/15 Q1018

More Conditions Fewer Conditions

Presión 30.06 pul
Visibilidad 6.2 Millas
Nubes Nubes dispersas 2500 ft
Nublado 5000 ft
Punto de rocío 55 ° F
Humedad 76%
Precipitaciones 0.18 pul
Espesor de la nieve No disponible.
UV 0 de una escala de 12
Polen No disponible.
Calidad del aire No disponible.
Flu Activity No disponible.
METAR SADF 010000Z 14008KT 9999 SCT025 OVC050 18/15 Q1018

More Conditions Fewer Conditions

10-Day Weather Forecast

Almanac

Astronomía

Oct. 31, 2014 Salida Puesta
Hora real
Crepúsculo civil
Crepúsculo náutico
Crepúsculo astronómico
Luna
Horas de luz
Horas de luz
Tomorrow will be .
, % of the Moon is Illuminated

Extremos de hoy

Máximos del país Bajas del país

Community

WunderPhotos

Upload Photos

1,766,798 ¡fotos cargadas!

WunderBlogs® & News

Nearby

Calidad del aire

  Calidad del aire Índice AQ Contaminante
Not available.

Grosos de nieve

Estación Profundido Altura

Actividad de terremotos

Ciudad Distance Mag. Tiempo y dato
Magnitud mínima muestra es 2,5.

Temperaturas de aguas costeras

Lugar Temperatura

Estaciones meteorológicas cercanas